Ana Sayfa
METAR-TAF:

METAR-TAF

Havaalanları :

Horn Island, Avustralya

Enlem: 10-35-11S, Boylam: 142-07-24E, yükseklik: 13 m

Güncel hava durumu gözlemi

Rapor saat 18:30 UTC de 37 dakika önce yapıldı.
Rüzgar güneydoğudan 11 kt
Sıcaklık 24°C
Nem 74%
Basınç 1013 hPa
Görüş mesafesi 10 km veya daha fazla

METAR: YHID 191830Z AUTO 13011KT 9999 // NCD 24/19 Q1013

Saat: 05:07 (19:07 UTC)

Tahmin

Rapor saat 17:00 UTC de 2 saat ve 7 dakika önce yapıldı.
Ayın 19'si saat 18 UTC'den ayın 20'si saat 18 UTC'ye kadar geçerli Tahmin
Rüzgar güneydoğudan 12 kt
Görüş mesafesi 10 km veya daha fazla
2500 ft yükseklikte az bulutlu

TAF: YHID 191700Z 1918/2018 13012KT 9999 FEW025

4.000'den fazla havaalanı için hava durumu gözlemleri ve tahminleri (METAR ve TAF raporları).

Kullanılabilir istasyonlar harita üzerinde sarı ve kırmızı noktalarla gösterilir.

İstasyonun adını görmek için fareyi noktanın üzerinde gezdirin.

Sonrasında hava gözlem ve tahminlerini görmek için tıklayın.

Haritayı değiştirmek için: yaklaştırmak için siyah artı işaretli yeşil düğmeye ve uzaklaştırmak için de eksi işaretli düğmeye hızla tıklayın; bitişik haritalar için yeşil okları kullanın.


METAR-TAF: